sensor_id;sensor_type;location;lat;lon;timestamp;temperature;humidity
30290;DHT22;17105;55.652;37.710;2023-01-01T00:00:24;5.50;95.50
30290;DHT22;17105;55.652;37.710;2023-01-01T00:00:59;5.50;95.50
30290;DHT22;17105;55.652;37.710;2023-01-01T00:01:40;5.50;95.50
30290;DHT22;17105;55.652;37.710;2023-01-01T00:02:14;5.50;95.40
30290;DHT22;17105;55.652;37.710;2023-01-01T00:02:50;5.50;95.30
30290;DHT22;17105;55.652;37.710;2023-01-01T00:03:23;5.50;95.30
30290;DHT22;17105;55.652;37.710;2023-01-01T00:03:58;5.60;95.30
30290;DHT22;17105;55.652;37.710;2023-01-01T00:04:33;5.60;95.20
30290;DHT22;17105;55.652;37.710;2023-01-01T00:05:08;5.60;95.40
30290;DHT22;17105;55.652;37.710;2023-01-01T00:05:42;5.60;95.20
30290;DHT22;17105;55.652;37.710;2023-01-01T00:06:18;5.60;95.20
30290;DHT22;17105;55.652;37.710;2023-01-01T00:06:52;5.60;95.20
30290;DHT22;17105;55.652;37.710;2023-01-01T00:07:28;5.60;95.20
30290;DHT22;17105;55.652;37.710;2023-01-01T00:08:03;5.60;95.20
30290;DHT22;17105;55.652;37.710;2023-01-01T00:08:39;5.60;95.20
30290;DHT22;17105;55.652;37.710;2023-01-01T00:09:15;5.60;95.20
30290;DHT22;17105;55.652;37.710;2023-01-01T00:10:09;5.60;95.10
30290;DHT22;17105;55.652;37.710;2023-01-01T00:11:00;5.60;95.10
30290;DHT22;17105;55.652;37.710;2023-01-01T00:11:36;5.60;95.20
30290;DHT22;17105;55.652;37.710;2023-01-01T00:12:10;5.60;95.20
30290;DHT22;17105;55.652;37.710;2023-01-01T00:12:45;5.60;95.10
30290;DHT22;17105;55.652;37.710;2023-01-01T00:13:19;5.60;95.10
30290;DHT22;17105;55.652;37.710;2023-01-01T00:13:54;5.60;95.10
30290;DHT22;17105;55.652;37.710;2023-01-01T00:14:29;5.60;95.10
30290;DHT22;17105;55.652;37.710;2023-01-01T00:15:03;5.60;95.10
30290;DHT22;17105;55.652;37.710;2023-01-01T00:15:38;5.60;95.10
30290;DHT22;17105;55.652;37.710;2023-01-01T00:16:12;5.60;95.20
30290;DHT22;17105;55.652;37.710;2023-01-01T00:16:47;5.60;95.20
30290;DHT22;17105;55.652;37.710;2023-01-01T00:17:22;5.60;95.30
30290;DHT22;17105;55.652;37.710;2023-01-01T00:17:55;5.60;95.30
30290;DHT22;17105;55.652;37.710;2023-01-01T00:18:30;5.60;95.30
30290;DHT22;17105;55.652;37.710;2023-01-01T00:19:04;5.60;95.30
30290;DHT22;17105;55.652;37.710;2023-01-01T00:19:40;5.60;95.40
30290;DHT22;17105;55.652;37.710;2023-01-01T00:20:14;5.60;95.40
30290;DHT22;17105;55.652;37.710;2023-01-01T00:20:50;5.60;95.40
30290;DHT22;17105;55.652;37.710;2023-01-01T00:21:24;5.70;95.40
30290;DHT22;17105;55.652;37.710;2023-01-01T00:21:58;5.70;95.30
30290;DHT22;17105;55.652;37.710;2023-01-01T00:22:53;5.70;95.20
30290;DHT22;17105;55.652;37.710;2023-01-01T00:23:28;5.70;95.20
30290;DHT22;17105;55.652;37.710;2023-01-01T00:24:03;5.70;95.10
30290;DHT22;17105;55.652;37.710;2023-01-01T00:24:41;5.70;95.00
30290;DHT22;17105;55.652;37.710;2023-01-01T00:25:17;5.70;94.90
30290;DHT22;17105;55.652;37.710;2023-01-01T00:25:53;5.70;94.90
30290;DHT22;17105;55.652;37.710;2023-01-01T00:26:28;5.70;95.10
30290;DHT22;17105;55.652;37.710;2023-01-01T00:27:07;5.70;94.90
30290;DHT22;17105;55.652;37.710;2023-01-01T00:27:42;5.80;94.90
30290;DHT22;17105;55.652;37.710;2023-01-01T00:28:17;5.70;94.90
30290;DHT22;17105;55.652;37.710;2023-01-01T00:28:53;5.70;94.90
30290;DHT22;17105;55.652;37.710;2023-01-01T00:29:27;5.70;95.00
30290;DHT22;17105;55.652;37.710;2023-01-01T00:30:01;5.80;95.00
30290;DHT22;17105;55.652;37.710;2023-01-01T00:30:38;5.80;95.00
30290;DHT22;17105;55.652;37.710;2023-01-01T00:31:14;5.80;95.00
30290;DHT22;17105;55.652;37.710;2023-01-01T00:31:50;5.80;95.00
30290;DHT22;17105;55.652;37.710;2023-01-01T00:32:24;5.80;95.00
30290;DHT22;17105;55.652;37.710;2023-01-01T00:32:59;5.80;95.00
30290;DHT22;17105;55.652;37.710;2023-01-01T00:33:33;5.80;94.90
30290;DHT22;17105;55.652;37.710;2023-01-01T00:34:09;5.80;94.80
30290;DHT22;17105;55.652;37.710;2023-01-01T00:34:43;5.80;94.80
30290;DHT22;17105;55.652;37.710;2023-01-01T00:35:18;5.80;94.70
30290;DHT22;17105;55.652;37.710;2023-01-01T00:35:52;5.80;94.80
30290;DHT22;17105;55.652;37.710;2023-01-01T00:36:28;5.80;94.80
30290;DHT22;17105;55.652;37.710;2023-01-01T00:37:03;5.80;94.80
30290;DHT22;17105;55.652;37.710;2023-01-01T00:37:36;5.80;94.80
30290;DHT22;17105;55.652;37.710;2023-01-01T00:38:18;5.70;94.80
30290;DHT22;17105;55.652;37.710;2023-01-01T00:38:52;5.70;94.80
30290;DHT22;17105;55.652;37.710;2023-01-01T00:39:28;5.70;94.80
30290;DHT22;17105;55.652;37.710;2023-01-01T00:40:04;5.70;94.80
30290;DHT22;17105;55.652;37.710;2023-01-01T00:40:41;5.70;94.90
30290;DHT22;17105;55.652;37.710;2023-01-01T00:41:16;5.70;95.00
30290;DHT22;17105;55.652;37.710;2023-01-01T00:41:52;5.70;95.00
30290;DHT22;17105;55.652;37.710;2023-01-01T00:42:26;5.70;95.10
30290;DHT22;17105;55.652;37.710;2023-01-01T00:43:01;5.70;95.00
30290;DHT22;17105;55.652;37.710;2023-01-01T00:43:36;5.70;95.00
30290;DHT22;17105;55.652;37.710;2023-01-01T00:44:10;5.70;95.00
30290;DHT22;17105;55.652;37.710;2023-01-01T00:44:44;5.70;95.00
30290;DHT22;17105;55.652;37.710;2023-01-01T00:45:19;5.70;95.00
30290;DHT22;17105;55.652;37.710;2023-01-01T00:45:54;5.70;95.10
30290;DHT22;17105;55.652;37.710;2023-01-01T00:46:27;5.70;95.10
30290;DHT22;17105;55.652;37.710;2023-01-01T00:47:02;5.70;95.20
30290;DHT22;17105;55.652;37.710;2023-01-01T00:47:38;5.70;95.20
30290;DHT22;17105;55.652;37.710;2023-01-01T00:48:12;5.70;95.20
30290;DHT22;17105;55.652;37.710;2023-01-01T00:48:46;5.70;95.20
30290;DHT22;17105;55.652;37.710;2023-01-01T00:49:21;5.70;95.20
30290;DHT22;17105;55.652;37.710;2023-01-01T00:49:55;5.70;95.20
30290;DHT22;17105;55.652;37.710;2023-01-01T00:50:30;5.70;95.10
30290;DHT22;17105;55.652;37.710;2023-01-01T00:51:04;5.70;95.10
30290;DHT22;17105;55.652;37.710;2023-01-01T00:51:38;5.70;95.10
30290;DHT22;17105;55.652;37.710;2023-01-01T00:52:13;5.70;95.20
30290;DHT22;17105;55.652;37.710;2023-01-01T00:52:46;5.60;95.20
30290;DHT22;17105;55.652;37.710;2023-01-01T00:53:22;5.70;95.20
30290;DHT22;17105;55.652;37.710;2023-01-01T00:53:57;5.60;95.20
30290;DHT22;17105;55.652;37.710;2023-01-01T00:54:32;5.60;95.30
30290;DHT22;17105;55.652;37.710;2023-01-01T00:55:08;5.60;95.40
30290;DHT22;17105;55.652;37.710;2023-01-01T00:55:44;5.60;95.40
30290;DHT22;17105;55.652;37.710;2023-01-01T00:56:18;5.60;95.40
30290;DHT22;17105;55.652;37.710;2023-01-01T00:56:52;5.60;95.40
30290;DHT22;17105;55.652;37.710;2023-01-01T00:57:27;5.60;95.40
30290;DHT22;17105;55.652;37.710;2023-01-01T00:58:02;5.60;95.50
30290;DHT22;17105;55.652;37.710;2023-01-01T00:58:37;5.60;95.60
30290;DHT22;17105;55.652;37.710;2023-01-01T00:59:11;5.60;95.60
30290;DHT22;17105;55.652;37.710;2023-01-01T00:59:46;5.60;95.60
30290;DHT22;17105;55.652;37.710;2023-01-01T01:00:20;5.60;95.60
30290;DHT22;17105;55.652;37.710;2023-01-01T01:00:54;5.60;95.60
30290;DHT22;17105;55.652;37.710;2023-01-01T01:01:29;5.60;95.60
30290;DHT22;17105;55.652;37.710;2023-01-01T01:02:03;5.60;95.60
30290;DHT22;17105;55.652;37.710;2023-01-01T01:02:38;5.60;95.50
30290;DHT22;17105;55.652;37.710;2023-01-01T01:03:12;5.70;95.50
30290;DHT22;17105;55.652;37.710;2023-01-01T01:04:01;5.70;95.40
30290;DHT22;17105;55.652;37.710;2023-01-01T01:04:36;5.70;95.40
30290;DHT22;17105;55.652;37.710;2023-01-01T01:05:12;5.70;95.40
30290;DHT22;17105;55.652;37.710;2023-01-01T01:05:45;5.70;95.40
30290;DHT22;17105;55.652;37.710;2023-01-01T01:06:20;5.70;95.40
30290;DHT22;17105;55.652;37.710;2023-01-01T01:06:54;5.70;95.40
30290;DHT22;17105;55.652;37.710;2023-01-01T01:07:37;5.70;95.40
30290;DHT22;17105;55.652;37.710;2023-01-01T01:08:11;5.70;95.30
30290;DHT22;17105;55.652;37.710;2023-01-01T01:08:45;5.70;95.30
30290;DHT22;17105;55.652;37.710;2023-01-01T01:09:21;5.60;95.30
30290;DHT22;17105;55.652;37.710;2023-01-01T01:09:54;5.60;95.40
30290;DHT22;17105;55.652;37.710;2023-01-01T01:10:31;5.60;95.50
30290;DHT22;17105;55.652;37.710;2023-01-01T01:11:05;5.60;95.60
30290;DHT22;17105;55.652;37.710;2023-01-01T01:11:39;5.50;95.60
30290;DHT22;17105;55.652;37.710;2023-01-01T01:12:13;5.60;95.80
30290;DHT22;17105;55.652;37.710;2023-01-01T01:12:50;5.50;95.80
30290;DHT22;17105;55.652;37.710;2023-01-01T01:13:24;5.50;95.90
30290;DHT22;17105;55.652;37.710;2023-01-01T01:13:58;5.60;95.90
30290;DHT22;17105;55.652;37.710;2023-01-01T01:14:33;5.60;95.90
30290;DHT22;17105;55.652;37.710;2023-01-01T01:15:09;5.60;95.80
30290;DHT22;17105;55.652;37.710;2023-01-01T01:15:43;5.60;95.70
30290;DHT22;17105;55.652;37.710;2023-01-01T01:16:22;5.60;95.70
30290;DHT22;17105;55.652;37.710;2023-01-01T01:16:57;5.60;95.70
30290;DHT22;17105;55.652;37.710;2023-01-01T01:17:32;5.60;95.60
30290;DHT22;17105;55.652;37.710;2023-01-01T01:18:05;5.60;95.60
30290;DHT22;17105;55.652;37.710;2023-01-01T01:18:39;5.60;95.50
30290;DHT22;17105;55.652;37.710;2023-01-01T01:19:14;5.60;95.50
30290;DHT22;17105;55.652;37.710;2023-01-01T01:19:52;5.60;95.50
30290;DHT22;17105;55.652;37.710;2023-01-01T01:20:27;5.60;95.40
30290;DHT22;17105;55.652;37.710;2023-01-01T01:21:01;5.60;95.40
30290;DHT22;17105;55.652;37.710;2023-01-01T01:21:34;5.60;95.50
30290;DHT22;17105;55.652;37.710;2023-01-01T01:22:09;5.60;95.50
30290;DHT22;17105;55.652;37.710;2023-01-01T01:22:44;5.60;95.60
30290;DHT22;17105;55.652;37.710;2023-01-01T01:23:18;5.60;95.60
30290;DHT22;17105;55.652;37.710;2023-01-01T01:23:52;5.70;95.60
30290;DHT22;17105;55.652;37.710;2023-01-01T01:24:25;5.60;95.60
30290;DHT22;17105;55.652;37.710;2023-01-01T01:25:02;5.70;95.70
30290;DHT22;17105;55.652;37.710;2023-01-01T01:25:36;5.60;95.80
30290;DHT22;17105;55.652;37.710;2023-01-01T01:26:15;5.70;95.80
30290;DHT22;17105;55.652;37.710;2023-01-01T01:26:50;5.70;95.80
30290;DHT22;17105;55.652;37.710;2023-01-01T01:27:26;5.70;95.80
30290;DHT22;17105;55.652;37.710;2023-01-01T01:27:59;5.70;95.70
30290;DHT22;17105;55.652;37.710;2023-01-01T01:28:34;5.70;95.60
30290;DHT22;17105;55.652;37.710;2023-01-01T01:29:09;5.70;95.60
30290;DHT22;17105;55.652;37.710;2023-01-01T01:29:43;5.70;95.60
30290;DHT22;17105;55.652;37.710;2023-01-01T01:30:18;5.70;95.60
30290;DHT22;17105;55.652;37.710;2023-01-01T01:30:52;5.70;95.60
30290;DHT22;17105;55.652;37.710;2023-01-01T01:31:27;5.70;95.60
30290;DHT22;17105;55.652;37.710;2023-01-01T01:32:05;5.70;95.60
30290;DHT22;17105;55.652;37.710;2023-01-01T01:32:38;5.70;95.50
30290;DHT22;17105;55.652;37.710;2023-01-01T01:33:14;5.70;95.50
30290;DHT22;17105;55.652;37.710;2023-01-01T01:33:49;5.70;95.50
30290;DHT22;17105;55.652;37.710;2023-01-01T01:34:24;5.70;95.50
30290;DHT22;17105;55.652;37.710;2023-01-01T01:35:00;5.70;95.50
30290;DHT22;17105;55.652;37.710;2023-01-01T01:35:34;5.70;95.50
30290;DHT22;17105;55.652;37.710;2023-01-01T01:36:11;5.70;95.50
30290;DHT22;17105;55.652;37.710;2023-01-01T01:36:45;5.70;95.40
30290;DHT22;17105;55.652;37.710;2023-01-01T01:37:20;5.70;95.40
30290;DHT22;17105;55.652;37.710;2023-01-01T01:37:56;5.70;95.40
30290;DHT22;17105;55.652;37.710;2023-01-01T01:38:30;5.70;95.40
30290;DHT22;17105;55.652;37.710;2023-01-01T01:39:05;5.70;95.50
30290;DHT22;17105;55.652;37.710;2023-01-01T01:39:39;5.70;95.50
30290;DHT22;17105;55.652;37.710;2023-01-01T01:40:13;5.70;95.60
30290;DHT22;17105;55.652;37.710;2023-01-01T01:40:51;5.70;95.60
30290;DHT22;17105;55.652;37.710;2023-01-01T01:41:26;5.70;95.60
30290;DHT22;17105;55.652;37.710;2023-01-01T01:42:00;5.70;95.50
30290;DHT22;17105;55.652;37.710;2023-01-01T01:42:36;5.70;95.40
30290;DHT22;17105;55.652;37.710;2023-01-01T01:43:11;5.80;95.40
30290;DHT22;17105;55.652;37.710;2023-01-01T01:43:55;5.70;95.30
30290;DHT22;17105;55.652;37.710;2023-01-01T01:44:49;5.80;95.30
30290;DHT22;17105;55.652;37.710;2023-01-01T01:45:24;5.70;95.30
30290;DHT22;17105;55.652;37.710;2023-01-01T01:46:09;5.70;95.40
30290;DHT22;17105;55.652;37.710;2023-01-01T01:46:45;5.70;95.40
30290;DHT22;17105;55.652;37.710;2023-01-01T01:47:25;5.70;95.50
30290;DHT22;17105;55.652;37.710;2023-01-01T01:47:59;5.70;95.50
30290;DHT22;17105;55.652;37.710;2023-01-01T01:48:43;5.70;95.40
30290;DHT22;17105;55.652;37.710;2023-01-01T01:49:23;5.70;95.40
30290;DHT22;17105;55.652;37.710;2023-01-01T01:50:05;5.70;95.40
30290;DHT22;17105;55.652;37.710;2023-01-01T01:50:45;5.70;95.40
30290;DHT22;17105;55.652;37.710;2023-01-01T01:51:23;5.70;95.40
30290;DHT22;17105;55.652;37.710;2023-01-01T01:52:00;5.70;95.40
30290;DHT22;17105;55.652;37.710;2023-01-01T01:52:36;5.70;95.40
30290;DHT22;17105;55.652;37.710;2023-01-01T01:53:16;5.70;95.40
30290;DHT22;17105;55.652;37.710;2023-01-01T01:53:56;5.70;95.30
30290;DHT22;17105;55.652;37.710;2023-01-01T01:54:34;5.80;95.40
30290;DHT22;17105;55.652;37.710;2023-01-01T01:55:09;5.70;95.30
30290;DHT22;17105;55.652;37.710;2023-01-01T01:55:47;5.80;95.30
30290;DHT22;17105;55.652;37.710;2023-01-01T01:56:28;5.80;95.20
30290;DHT22;17105;55.652;37.710;2023-01-01T01:57:07;5.80;95.20
30290;DHT22;17105;55.652;37.710;2023-01-01T01:57:43;5.80;95.20
30290;DHT22;17105;55.652;37.710;2023-01-01T01:58:18;5.80;95.10
30290;DHT22;17105;55.652;37.710;2023-01-01T01:58:53;5.80;95.10
30290;DHT22;17105;55.652;37.710;2023-01-01T01:59:30;5.80;95.10
30290;DHT22;17105;55.652;37.710;2023-01-01T02:00:06;5.80;95.10
30290;DHT22;17105;55.652;37.710;2023-01-01T02:00:43;5.80;95.00
30290;DHT22;17105;55.652;37.710;2023-01-01T02:01:18;5.80;95.00
30290;DHT22;17105;55.652;37.710;2023-01-01T02:01:53;5.80;95.10
30290;DHT22;17105;55.652;37.710;2023-01-01T02:02:31;5.80;95.10
30290;DHT22;17105;55.652;37.710;2023-01-01T02:03:08;5.80;95.10
30290;DHT22;17105;55.652;37.710;2023-01-01T02:03:48;5.80;95.10
30290;DHT22;17105;55.652;37.710;2023-01-01T02:04:23;5.80;95.10
30290;DHT22;17105;55.652;37.710;2023-01-01T02:04:58;5.70;95.10
30290;DHT22;17105;55.652;37.710;2023-01-01T02:05:33;5.70;95.10
30290;DHT22;17105;55.652;37.710;2023-01-01T02:06:08;5.70;95.10
30290;DHT22;17105;55.652;37.710;2023-01-01T02:06:42;5.70;95.20
30290;DHT22;17105;55.652;37.710;2023-01-01T02:07:19;5.70;95.20
30290;DHT22;17105;55.652;37.710;2023-01-01T02:07:54;5.70;95.30
30290;DHT22;17105;55.652;37.710;2023-01-01T02:08:31;5.70;95.40
30290;DHT22;17105;55.652;37.710;2023-01-01T02:09:06;5.70;95.50
30290;DHT22;17105;55.652;37.710;2023-01-01T02:09:41;5.70;95.50
30290;DHT22;17105;55.652;37.710;2023-01-01T02:10:17;5.70;95.50
30290;DHT22;17105;55.652;37.710;2023-01-01T02:10:51;5.60;95.50
30290;DHT22;17105;55.652;37.710;2023-01-01T02:11:26;5.60;95.60
30290;DHT22;17105;55.652;37.710;2023-01-01T02:12:00;5.60;95.60
30290;DHT22;17105;55.652;37.710;2023-01-01T02:12:35;5.60;95.60
30290;DHT22;17105;55.652;37.710;2023-01-01T02:13:09;5.60;95.60
30290;DHT22;17105;55.652;37.710;2023-01-01T02:13:43;5.60;95.70
30290;DHT22;17105;55.652;37.710;2023-01-01T02:14:17;5.70;95.70
30290;DHT22;17105;55.652;37.710;2023-01-01T02:14:52;5.70;95.80
30290;DHT22;17105;55.652;37.710;2023-01-01T02:15:29;5.70;95.80
30290;DHT22;17105;55.652;37.710;2023-01-01T02:16:12;5.70;95.80
30290;DHT22;17105;55.652;37.710;2023-01-01T02:16:50;5.70;95.80
30290;DHT22;17105;55.652;37.710;2023-01-01T02:17:32;5.70;95.80
30290;DHT22;17105;55.652;37.710;2023-01-01T02:18:13;5.70;95.80
30290;DHT22;17105;55.652;37.710;2023-01-01T02:18:56;5.80;95.70
30290;DHT22;17105;55.652;37.710;2023-01-01T02:19:40;5.70;95.60
30290;DHT22;17105;55.652;37.710;2023-01-01T02:20:28;5.80;95.60
30290;DHT22;17105;55.652;37.710;2023-01-01T02:21:07;5.80;95.50
30290;DHT22;17105;55.652;37.710;2023-01-01T02:21:52;5.80;95.50
30290;DHT22;17105;55.652;37.710;2023-01-01T02:22:45;5.80;95.30
30290;DHT22;17105;55.652;37.710;2023-01-01T02:24:42;5.70;95.40
30290;DHT22;17105;55.652;37.710;2023-01-01T02:25:26;5.70;95.30
30290;DHT22;17105;55.652;37.710;2023-01-01T02:26:21;5.70;95.30
30290;DHT22;17105;55.652;37.710;2023-01-01T02:26:59;5.70;95.30
30290;DHT22;17105;55.652;37.710;2023-01-01T02:27:48;5.70;95.30
30290;DHT22;17105;55.652;37.710;2023-01-01T02:28:48;5.70;95.30
30290;DHT22;17105;55.652;37.710;2023-01-01T02:29:39;5.70;95.30
30290;DHT22;17105;55.652;37.710;2023-01-01T02:30:36;5.70;95.40
30290;DHT22;17105;55.652;37.710;2023-01-01T02:31:17;5.80;95.40
30290;DHT22;17105;55.652;37.710;2023-01-01T02:31:57;5.70;95.40
30290;DHT22;17105;55.652;37.710;2023-01-01T02:32:36;5.70;95.40
30290;DHT22;17105;55.652;37.710;2023-01-01T02:33:13;5.80;95.40
30290;DHT22;17105;55.652;37.710;2023-01-01T02:33:49;5.80;95.40
30290;DHT22;17105;55.652;37.710;2023-01-01T02:34:27;5.80;95.40
30290;DHT22;17105;55.652;37.710;2023-01-01T02:35:04;5.80;95.30
30290;DHT22;17105;55.652;37.710;2023-01-01T02:35:58;5.80;95.30
30290;DHT22;17105;55.652;37.710;2023-01-01T02:36:36;5.80;95.30
30290;DHT22;17105;55.652;37.710;2023-01-01T02:37:14;5.80;95.30
30290;DHT22;17105;55.652;37.710;2023-01-01T02:37:54;5.80;95.30
30290;DHT22;17105;55.652;37.710;2023-01-01T02:38:32;5.80;95.30
30290;DHT22;17105;55.652;37.710;2023-01-01T02:39:08;5.90;95.30
30290;DHT22;17105;55.652;37.710;2023-01-01T02:39:47;5.90;95.30
30290;DHT22;17105;55.652;37.710;2023-01-01T02:40:23;5.90;95.30
30290;DHT22;17105;55.652;37.710;2023-01-01T02:41:01;5.90;95.30
30290;DHT22;17105;55.652;37.710;2023-01-01T02:41:39;5.90;95.30
30290;DHT22;17105;55.652;37.710;2023-01-01T02:42:16;5.90;95.20
30290;DHT22;17105;55.652;37.710;2023-01-01T02:42:53;5.90;95.10
30290;DHT22;17105;55.652;37.710;2023-01-01T02:43:28;5.90;95.10
30290;DHT22;17105;55.652;37.710;2023-01-01T02:44:04;5.90;95.00
30290;DHT22;17105;55.652;37.710;2023-01-01T02:44:40;5.90;95.00
30290;DHT22;17105;55.652;37.710;2023-01-01T02:45:16;5.90;95.00
30290;DHT22;17105;55.652;37.710;2023-01-01T02:45:50;5.90;95.10
30290;DHT22;17105;55.652;37.710;2023-01-01T02:46:30;5.90;95.10
30290;DHT22;17105;55.652;37.710;2023-01-01T02:47:09;5.90;95.10
30290;DHT22;17105;55.652;37.710;2023-01-01T02:47:45;5.90;95.10
30290;DHT22;17105;55.652;37.710;2023-01-01T02:48:37;5.90;95.10
30290;DHT22;17105;55.652;37.710;2023-01-01T02:49:12;5.90;95.20
30290;DHT22;17105;55.652;37.710;2023-01-01T02:49:54;5.90;95.20
30290;DHT22;17105;55.652;37.710;2023-01-01T02:50:29;5.90;95.10
30290;DHT22;17105;55.652;37.710;2023-01-01T02:51:07;5.90;95.20
30290;DHT22;17105;55.652;37.710;2023-01-01T02:51:56;5.90;95.20
30290;DHT22;17105;55.652;37.710;2023-01-01T02:52:57;5.90;95.10
30290;DHT22;17105;55.652;37.710;2023-01-01T02:53:37;5.90;95.00
30290;DHT22;17105;55.652;37.710;2023-01-01T02:54:24;5.90;94.90
30290;DHT22;17105;55.652;37.710;2023-01-01T02:55:05;5.90;94.90
30290;DHT22;17105;55.652;37.710;2023-01-01T02:55:47;5.90;94.90
30290;DHT22;17105;55.652;37.710;2023-01-01T02:56:33;5.90;94.90
30290;DHT22;17105;55.652;37.710;2023-01-01T02:57:15;5.90;94.90
30290;DHT22;17105;55.652;37.710;2023-01-01T02:57:58;5.90;95.00
30290;DHT22;17105;55.652;37.710;2023-01-01T02:59:04;5.90;95.00
30290;DHT22;17105;55.652;37.710;2023-01-01T03:00:02;5.90;95.00
30290;DHT22;17105;55.652;37.710;2023-01-01T03:00:57;5.90;95.00
30290;DHT22;17105;55.652;37.710;2023-01-01T03:01:38;5.90;95.00
30290;DHT22;17105;55.652;37.710;2023-01-01T03:02:22;5.90;95.00
30290;DHT22;17105;55.652;37.710;2023-01-01T03:03:09;5.90;95.00
30290;DHT22;17105;55.652;37.710;2023-01-01T03:03:55;5.90;95.00
30290;DHT22;17105;55.652;37.710;2023-01-01T03:04:34;5.90;94.90
30290;DHT22;17105;55.652;37.710;2023-01-01T03:05:18;5.90;94.90
30290;DHT22;17105;55.652;37.710;2023-01-01T03:05:57;6.00;94.90
30290;DHT22;17105;55.652;37.710;2023-01-01T03:07:03;6.00;94.90
30290;DHT22;17105;55.652;37.710;2023-01-01T03:07:49;6.00;94.90
30290;DHT22;17105;55.652;37.710;2023-01-01T03:08:33;6.00;94.90
30290;DHT22;17105;55.652;37.710;2023-01-01T03:09:16;6.00;94.90
30290;DHT22;17105;55.652;37.710;2023-01-01T03:09:55;5.90;94.90
30290;DHT22;17105;55.652;37.710;2023-01-01T03:10:40;5.90;95.00
30290;DHT22;17105;55.652;37.710;2023-01-01T03:11:17;6.00;95.10
30290;DHT22;17105;55.652;37.710;2023-01-01T03:11:58;6.00;95.10
30290;DHT22;17105;55.652;37.710;2023-01-01T03:12:41;5.90;95.10
30290;DHT22;17105;55.652;37.710;2023-01-01T03:13:24;6.00;95.00
30290;DHT22;17105;55.652;37.710;2023-01-01T03:14:04;6.00;95.00
30290;DHT22;17105;55.652;37.710;2023-01-01T03:14:44;6.00;94.90
30290;DHT22;17105;55.652;37.710;2023-01-01T03:15:23;6.00;95.00
30290;DHT22;17105;55.652;37.710;2023-01-01T03:16:03;6.00;94.90
30290;DHT22;17105;55.652;37.710;2023-01-01T03:16:41;6.00;94.90
30290;DHT22;17105;55.652;37.710;2023-01-01T03:17:19;6.00;95.00
30290;DHT22;17105;55.652;37.710;2023-01-01T03:18:00;6.00;95.00
30290;DHT22;17105;55.652;37.710;2023-01-01T03:18:43;6.00;95.00
30290;DHT22;17105;55.652;37.710;2023-01-01T03:19:23;6.00;94.90
30290;DHT22;17105;55.652;37.710;2023-01-01T03:20:00;6.00;94.90
30290;DHT22;17105;55.652;37.710;2023-01-01T03:20:38;6.00;94.90
30290;DHT22;17105;55.652;37.710;2023-01-01T03:21:16;6.00;94.90
30290;DHT22;17105;55.652;37.710;2023-01-01T03:21:57;5.90;95.00
30290;DHT22;17105;55.652;37.710;2023-01-01T03:22:35;6.00;95.00
30290;DHT22;17105;55.652;37.710;2023-01-01T03:23:14;6.00;95.00
30290;DHT22;17105;55.652;37.710;2023-01-01T03:23:51;6.00;95.10
30290;DHT22;17105;55.652;37.710;2023-01-01T03:24:32;6.00;95.10
30290;DHT22;17105;55.652;37.710;2023-01-01T03:25:09;6.00;95.10
30290;DHT22;17105;55.652;37.710;2023-01-01T03:25:47;5.90;95.10
30290;DHT22;17105;55.652;37.710;2023-01-01T03:26:24;5.90;95.10
30290;DHT22;17105;55.652;37.710;2023-01-01T03:27:02;5.90;95.20
30290;DHT22;17105;55.652;37.710;2023-01-01T03:27:41;5.90;95.20
30290;DHT22;17105;55.652;37.710;2023-01-01T03:28:18;5.90;95.10
30290;DHT22;17105;55.652;37.710;2023-01-01T03:28:56;5.90;95.20
30290;DHT22;17105;55.652;37.710;2023-01-01T03:29:35;5.90;95.30
30290;DHT22;17105;55.652;37.710;2023-01-01T03:30:12;5.90;95.20
30290;DHT22;17105;55.652;37.710;2023-01-01T03:30:51;5.90;95.20
30290;DHT22;17105;55.652;37.710;2023-01-01T03:31:27;5.90;95.20
30290;DHT22;17105;55.652;37.710;2023-01-01T03:32:04;5.90;95.20
30290;DHT22;17105;55.652;37.710;2023-01-01T03:32:43;5.90;95.20
30290;DHT22;17105;55.652;37.710;2023-01-01T03:33:39;5.90;95.20
30290;DHT22;17105;55.652;37.710;2023-01-01T03:34:17;6.00;95.20
30290;DHT22;17105;55.652;37.710;2023-01-01T03:34:52;6.00;95.20
30290;DHT22;17105;55.652;37.710;2023-01-01T03:35:33;6.00;95.10
30290;DHT22;17105;55.652;37.710;2023-01-01T03:36:12;6.00;95.10
30290;DHT22;17105;55.652;37.710;2023-01-01T03:36:49;6.00;95.10
30290;DHT22;17105;55.652;37.710;2023-01-01T03:37:27;6.00;95.00
30290;DHT22;17105;55.652;37.710;2023-01-01T03:38:02;6.00;95.10
30290;DHT22;17105;55.652;37.710;2023-01-01T03:38:41;6.00;95.10
30290;DHT22;17105;55.652;37.710;2023-01-01T03:39:19;6.00;95.10
30290;DHT22;17105;55.652;37.710;2023-01-01T03:39:56;6.00;95.10
30290;DHT22;17105;55.652;37.710;2023-01-01T03:40:35;6.00;95.00
30290;DHT22;17105;55.652;37.710;2023-01-01T03:41:13;6.00;95.00
30290;DHT22;17105;55.652;37.710;2023-01-01T03:41:51;6.00;95.00
30290;DHT22;17105;55.652;37.710;2023-01-01T03:42:33;6.00;95.10
30290;DHT22;17105;55.652;37.710;2023-01-01T03:43:13;6.00;95.20
30290;DHT22;17105;55.652;37.710;2023-01-01T03:43:50;6.00;95.20
30290;DHT22;17105;55.652;37.710;2023-01-01T03:44:29;6.00;95.20
30290;DHT22;17105;55.652;37.710;2023-01-01T03:45:09;6.00;95.20
30290;DHT22;17105;55.652;37.710;2023-01-01T03:45:48;6.00;95.20
30290;DHT22;17105;55.652;37.710;2023-01-01T03:46:27;6.00;95.20
30290;DHT22;17105;55.652;37.710;2023-01-01T03:47:04;6.00;95.20
30290;DHT22;17105;55.652;37.710;2023-01-01T03:47:39;6.00;95.20
30290;DHT22;17105;55.652;37.710;2023-01-01T03:48:14;6.00;95.20
30290;DHT22;17105;55.652;37.710;2023-01-01T03:48:46;6.00;95.20
30290;DHT22;17105;55.652;37.710;2023-01-01T03:49:36;6.00;95.20
30290;DHT22;17105;55.652;37.710;2023-01-01T03:50:11;6.00;95.20
30290;DHT22;17105;55.652;37.710;2023-01-01T03:50:54;6.00;95.10
30290;DHT22;17105;55.652;37.710;2023-01-01T03:52:54;6.00;95.20
30290;DHT22;17105;55.652;37.710;2023-01-01T03:53:37;6.10;95.10
30290;DHT22;17105;55.652;37.710;2023-01-01T03:54:22;6.00;95.00
30290;DHT22;17105;55.652;37.710;2023-01-01T03:55:05;6.00;94.90
30290;DHT22;17105;55.652;37.710;2023-01-01T03:55:45;6.00;94.90
30290;DHT22;17105;55.652;37.710;2023-01-01T03:56:31;6.00;95.00
30290;DHT22;17105;55.652;37.710;2023-01-01T03:57:12;6.10;94.90
30290;DHT22;17105;55.652;37.710;2023-01-01T03:57:54;6.10;94.90
30290;DHT22;17105;55.652;37.710;2023-01-01T03:58:34;6.00;94.90
30290;DHT22;17105;55.652;37.710;2023-01-01T03:59:15;6.10;94.90
30290;DHT22;17105;55.652;37.710;2023-01-01T03:59:57;6.00;94.90
30290;DHT22;17105;55.652;37.710;2023-01-01T04:00:34;6.10;94.90
30290;DHT22;17105;55.652;37.710;2023-01-01T04:01:13;6.10;94.90
30290;DHT22;17105;55.652;37.710;2023-01-01T04:01:51;6.10;94.90
30290;DHT22;17105;55.652;37.710;2023-01-01T04:02:28;6.00;94.90